AirNav   TITAN Aviation Fuels
 
 1601 users online  

WA00 Mercer Ranch Airport
Alderdale, Washington, USA

GOING TO ALDERDALE?


FAA INFORMATION EFFECTIVE 04 NOVEMBER 2021

Location

FAA Identifier: WA00
Lat/Long: 45-54-00.0000N 119-54-20.0000W
45-54.000000N 119-54.333333W
45.9000000,-119.9055556
(estimated)
Elevation: 780 ft. / 238 m (estimated)
Variation: 18E (1995)
From city: 2 miles NE of ALDERDALE, WA
Time zone: UTC -8 (UTC -7 during Daylight Saving Time)
Zip code: 99350

Airport Operations

Airport use: Private use. Permission required prior to landing
Activation date: 06/2000
Control tower: no
ARTCC: SEATTLE CENTER
FSS: SEATTLE FLIGHT SERVICE STATION
Attendance: UNATNDD
Wind indicator: yes
Segmented circle: no
Lights: FOR LIRL CALL 509-894-4773/4491.

Airport Communications

WX AWOS-1 at S40 (19 nm N): 121.125 (509-786-8889)

Nearby radio navigation aids

VOR radial/distance  VOR name  Freq  Var
PSCr221/39.6PASCO VOR/DME109.8015E

Airport Services

Runway Information

Runway 5/23

Dimensions: 2200 x 40 ft. / 671 x 12 m
Surface: gravel
Runway edge lights: low intensity
RUNWAY 5  RUNWAY 23
Traffic pattern: leftleft

Airport Ownership and Management from official FAA records

Ownership: Privately-owned
Owner: RICHARD T BEIGHTOL
46 SONOVA ROAD
PROSSER, WA 99350
Phone 509-894-4656
Manager: MILTON "BUD" MERCER
46 SONOVA ROAD
PROSSER, WA 99350
Phone 509-894-4773

Airport Operational Statistics

Aircraft based on the field: 1
Single engine airplanes: 1
    

Additional Remarks

ABRUPT DROPOFFS ON EACH END OF RY 05/23.
FOR CD CTC SEATTLE ARTCC AT 253-351-3694.

Instrument Procedures

There are no published instrument procedures at WA00.

Some nearby airports with instrument procedures:

KHRI - Hermiston Municipal Airport (27 nm E)
9S9 - Lexington Airport (28 nm S)
KRLD - Richland Airport (35 nm NE)
KPSC - Tri-Cities Airport (39 nm NE)
KPDT - Eastern Oregon Regional Airport at Pendleton (46 nm E)
 
Loc | Ops | Rwys | IFR | FBO | Links
Com | Nav | Svcs | Stats | Notes
Area around WA00 (Mercer Ranch Airport)
 
Road maps at: MapQuest Bing Google
 
Aerial photo
No photo
 
Sectional chart

 
Airport distance calculator
Flying to Mercer Ranch Airport? Find the distance to fly.

From to WA00

Sunrise and sunset
Times for 30-Nov-2021
 Local
(UTC-8)
 Zulu
(UTC)
Morning civil twilight06:4714:47
Sunrise07:2115:21
Sunset16:1600:16
Evening civil twilight16:5000:50

Current date and time
Zulu (UTC)  30-Nov-2021 18:39:35
Local (UTC-8)  30-Nov-2021 10:39:35
 
METAR
K1S5 
26nm N 
301815Z AUTO 00000KT 10SM SCT085 15/08 A3015 RMK AO2 T01450075
KHRI 
27nm E 
301753Z AUTO 24011KT 10SM SCT085 OVC110 14/06 A3019 RMK AO2 SLP225 T01390061 10139 20050 53012
KRLD 
35nm NE 
301815Z AUTO 21015G20KT 10SM OVC090 16/09 A3016 RMK AO2 T01590085
KPSC 
40nm NE 
301753Z 23016G26KT 10SM OVC090 16/08 A3016 RMK AO2 PK WND 22029/1735 SLP213 T01560078 10156 20111 53014
KPDT 
46nm E 
301753Z 22010KT 10SM BKN080 OVC110 14/04 A3020 RMK AO2 SLP224 T01390044 10144 20072 53013
KYKM 
48nm NW 
301753Z 09003KT 10SM FEW075 07/04 A3012 RMK AO2 SLP206 T00670044 10072 20022 53007
TAF
KPSC 
40nm NE 
301732Z 3018/0118 22014G21KT P6SM OVC080 FM010400 21011KT P6SM BKN100 FM011100 21006KT P6SM SCT250
KPDT 
46nm E 
301732Z 3018/0118 21011KT P6SM BKN090 FM302000 24012G20KT P6SM OVC060 FM010100 20009KT P6SM BKN100 FM011200 18007KT P6SM SCT250
KYKM 
48nm NW 
300540Z 3006/0106 VRB03KT P6SM OVC250 FM301500 26005KT P6SM BKN050 OVC100
NOTAMs
Click for the latest NOTAMs
NOTAMs are issued by the DoD/FAA and will open in a separate window not controlled by AirNav.

 

 
 

Would you like to see your business listed on this page?

 If your business provides an interesting product or service to pilots, flight crews, aircraft, or users of the Mercer Ranch Airport, you should consider listing it here.  To start the listing process, click on the button below
 
Add a business
 

Other Pages about Mercer Ranch Airport

Update a link
 
Copyright © AirNav, LLC. All rights reserved. Privacy Policy  Contact